createdAt,value
2022-10-02T00:02:16.853Z,13.60
2022-10-02T00:05:13.369Z,13.60
2022-10-02T00:08:07.997Z,13.60
2022-10-02T00:11:02.056Z,13.60
2022-10-02T00:13:56.512Z,13.50
2022-10-02T00:16:52.358Z,13.60
2022-10-02T00:19:43.986Z,13.60
2022-10-02T00:22:45.112Z,13.60
2022-10-02T00:28:27.053Z,13.60
2022-10-02T00:31:30.033Z,13.50
2022-10-02T00:34:27.354Z,13.50
2022-10-02T00:40:04.893Z,13.50
2022-10-02T00:43:06.801Z,13.50
2022-10-02T00:46:24.441Z,13.40
2022-10-02T00:49:50.887Z,13.40
2022-10-02T00:52:49.872Z,13.40
2022-10-02T00:59:23.019Z,13.40
2022-10-02T01:04:56.942Z,13.40
2022-10-02T01:07:51.600Z,13.40
2022-10-02T01:16:00.676Z,13.30
2022-10-02T01:18:51.914Z,13.40
2022-10-02T01:21:46.740Z,13.40
2022-10-02T01:24:40.000Z,13.40
2022-10-02T01:27:36.561Z,13.50
2022-10-02T01:30:25.348Z,13.50
2022-10-02T01:33:17.804Z,13.40
2022-10-02T01:38:50.304Z,13.40
2022-10-02T01:41:45.178Z,13.40
2022-10-02T01:44:37.100Z,13.40
2022-10-02T01:47:31.407Z,13.30
2022-10-02T01:53:11.106Z,13.40
2022-10-02T01:56:07.311Z,13.40
2022-10-02T02:01:47.031Z,13.40
2022-10-02T02:04:42.399Z,13.50
2022-10-02T02:07:37.239Z,13.50
2022-10-02T02:13:51.590Z,13.40
2022-10-02T02:16:51.505Z,13.50
2022-10-02T02:22:36.918Z,13.40
2022-10-02T02:25:31.772Z,13.40
2022-10-02T02:28:24.946Z,13.40
2022-10-02T02:31:19.702Z,13.40
2022-10-02T02:34:14.327Z,13.40
2022-10-02T02:37:08.443Z,13.30
2022-10-02T02:40:05.870Z,13.30
2022-10-02T02:43:00.434Z,13.30
2022-10-02T02:45:55.264Z,13.30
2022-10-02T02:48:49.713Z,13.20
2022-10-02T02:51:44.392Z,13.20
2022-10-02T02:57:21.169Z,13.20
2022-10-02T03:00:15.966Z,13.20
2022-10-02T03:03:07.892Z,13.20
2022-10-02T03:06:02.926Z,13.20
2022-10-02T03:11:44.388Z,13.10
2022-10-02T03:14:56.791Z,13.10
2022-10-02T03:18:01.565Z,13.10
2022-10-02T03:20:57.890Z,13.10
2022-10-02T03:23:58.128Z,13.10
2022-10-02T03:26:52.802Z,13.00
2022-10-02T03:32:57.613Z,13.00
2022-10-02T03:35:51.327Z,13.10
2022-10-02T03:38:44.279Z,13.10
2022-10-02T03:41:35.434Z,13.10
2022-10-02T03:44:27.686Z,13.10
2022-10-02T03:47:19.069Z,13.20
2022-10-02T03:50:14.357Z,13.20
2022-10-02T03:53:12.912Z,13.20
2022-10-02T03:56:08.481Z,13.20
2022-10-02T03:59:02.745Z,13.20
2022-10-02T04:04:38.575Z,13.10
2022-10-02T04:07:34.645Z,13.10
2022-10-02T04:13:28.008Z,13.10
2022-10-02T04:16:22.440Z,13.00
2022-10-02T04:19:18.061Z,13.00
2022-10-02T04:22:14.484Z,13.00
2022-10-02T04:25:10.306Z,12.90
2022-10-02T04:28:05.144Z,12.90
2022-10-02T04:33:41.553Z,13.00
2022-10-02T04:39:31.595Z,13.10
2022-10-02T04:42:31.373Z,13.00
2022-10-02T04:45:38.390Z,13.00
2022-10-02T04:49:03.532Z,12.90
2022-10-02T04:52:05.381Z,13.00
2022-10-02T04:55:06.927Z,13.00
2022-10-02T04:58:31.046Z,13.00
2022-10-02T05:01:29.401Z,13.00
2022-10-02T05:04:26.996Z,13.00
2022-10-02T05:07:34.699Z,13.00
2022-10-02T05:10:48.029Z,12.90
2022-10-02T05:14:00.244Z,12.90
2022-10-02T05:17:05.547Z,12.90
2022-10-02T05:20:11.768Z,12.90
2022-10-02T05:23:12.307Z,12.90
2022-10-02T05:26:28.418Z,12.80
2022-10-02T05:29:32.662Z,12.80
2022-10-02T05:32:32.665Z,12.80
2022-10-02T05:35:34.842Z,12.80
2022-10-02T05:38:31.611Z,12.90
2022-10-02T05:41:26.094Z,12.90
2022-10-02T05:44:21.711Z,13.00
2022-10-02T05:47:18.316Z,13.00
2022-10-02T05:50:15.615Z,13.00
2022-10-02T05:53:11.646Z,13.00
2022-10-02T05:58:56.661Z,13.10
2022-10-02T06:01:51.356Z,13.10
2022-10-02T06:04:46.377Z,13.20
2022-10-02T06:07:38.101Z,13.20
2022-10-02T06:10:34.045Z,13.30
2022-10-02T06:13:28.484Z,13.30
2022-10-02T06:16:23.835Z,13.30
2022-10-02T06:19:18.141Z,13.40
2022-10-02T06:22:13.180Z,13.40
2022-10-02T06:25:08.400Z,13.40
2022-10-02T06:28:04.095Z,13.50
2022-10-02T06:30:59.224Z,13.50
2022-10-02T06:33:52.243Z,13.50
2022-10-02T06:37:21.029Z,13.60
2022-10-02T06:43:42.464Z,13.70
2022-10-02T06:46:40.349Z,13.80
2022-10-02T06:49:39.639Z,13.90
2022-10-02T06:52:38.263Z,14.00
2022-10-02T06:55:37.048Z,14.10
2022-10-02T06:58:42.556Z,14.10
2022-10-02T07:01:39.686Z,14.10
2022-10-02T07:04:42.358Z,14.20
2022-10-02T07:07:42.488Z,14.30
2022-10-02T07:13:30.376Z,14.30
2022-10-02T07:16:28.951Z,14.30
2022-10-02T07:23:00.356Z,14.50
2022-10-02T07:29:09.035Z,14.60
2022-10-02T07:32:17.515Z,14.70
2022-10-02T07:35:26.155Z,14.80
2022-10-02T07:38:45.272Z,14.90
2022-10-02T07:42:00.542Z,14.90
2022-10-02T07:48:28.043Z,15.10
2022-10-02T07:51:46.117Z,15.30
2022-10-02T07:54:56.813Z,15.30
2022-10-02T08:00:35.801Z,15.40
2022-10-02T08:03:32.055Z,15.50
2022-10-02T08:06:23.323Z,15.50
2022-10-02T08:09:17.744Z,15.50
2022-10-02T08:12:12.360Z,15.50
2022-10-02T08:15:04.315Z,15.50
2022-10-02T08:18:11.009Z,15.50
2022-10-02T08:20:52.280Z,15.60
2022-10-02T08:23:48.652Z,15.80
2022-10-02T08:26:43.444Z,15.90
2022-10-02T08:29:39.070Z,16.00
2022-10-02T08:32:35.075Z,16.10
2022-10-02T08:35:30.130Z,16.20
2022-10-02T08:38:34.120Z,16.30
2022-10-02T08:41:52.106Z,16.40
2022-10-02T08:45:26.710Z,16.30
2022-10-02T08:48:50.841Z,16.30
2022-10-02T08:52:29.684Z,16.50
2022-10-02T08:55:47.068Z,16.60
2022-10-02T08:59:08.253Z,16.70
2022-10-02T09:06:07.927Z,16.80
2022-10-02T09:09:39.670Z,17.00
2022-10-02T09:13:09.123Z,16.80
2022-10-02T09:16:09.367Z,16.80
2022-10-02T09:19:04.358Z,16.80
2022-10-02T09:21:58.432Z,16.80
2022-10-02T09:25:18.811Z,16.80
2022-10-02T09:28:35.187Z,16.90
2022-10-02T09:34:56.269Z,17.00
2022-10-02T09:41:24.422Z,17.10
2022-10-02T09:44:40.209Z,17.10
2022-10-02T09:51:15.124Z,17.20
2022-10-02T09:54:39.333Z,17.30
2022-10-02T10:01:11.165Z,17.50
2022-10-02T10:05:05.210Z,17.60
2022-10-02T10:08:21.103Z,17.60
2022-10-02T10:12:05.724Z,17.80
2022-10-02T10:15:43.751Z,17.90
2022-10-02T10:19:07.717Z,17.90
2022-10-02T10:25:42.963Z,17.90
2022-10-02T10:29:14.449Z,17.80
2022-10-02T10:32:38.894Z,17.90
2022-10-02T10:36:03.687Z,17.90
2022-10-02T10:38:59.060Z,18.00
2022-10-02T10:45:42.655Z,18.10
2022-10-02T10:48:49.389Z,18.20
2022-10-02T10:54:48.370Z,18.20
2022-10-02T11:00:30.187Z,18.30
2022-10-02T11:06:43.982Z,18.40
2022-10-02T11:10:16.579Z,18.40
2022-10-02T11:16:19.155Z,18.60
2022-10-02T11:22:36.562Z,18.80
2022-10-02T11:25:43.726Z,18.90
2022-10-02T11:31:27.055Z,19.10
2022-10-02T11:37:20.691Z,19.30
2022-10-02T11:40:21.436Z,19.30
2022-10-02T11:43:28.491Z,19.40
2022-10-02T11:46:32.685Z,19.50
2022-10-02T11:55:49.076Z,19.80
2022-10-02T12:01:29.922Z,20.00
2022-10-02T12:04:30.387Z,20.10
2022-10-02T12:10:30.863Z,20.20
2022-10-02T12:16:34.815Z,20.40
2022-10-02T12:22:29.356Z,20.50
2022-10-02T12:25:41.944Z,20.60
2022-10-02T12:28:37.383Z,20.70
2022-10-02T12:34:14.313Z,21.10
2022-10-02T12:37:08.285Z,21.20
2022-10-02T12:40:03.082Z,21.20
2022-10-02T12:43:40.769Z,21.30
2022-10-02T12:46:50.294Z,21.40
2022-10-02T12:49:53.904Z,21.40
2022-10-02T12:53:00.690Z,21.40
2022-10-02T12:56:21.308Z,21.40
2022-10-02T12:59:16.389Z,21.40
2022-10-02T13:05:52.151Z,21.60
2022-10-02T13:08:59.822Z,21.70
2022-10-02T13:12:16.766Z,21.70
2022-10-02T13:15:29.485Z,21.70
2022-10-02T13:18:34.662Z,21.70
2022-10-02T13:21:30.100Z,21.80
2022-10-02T13:24:36.103Z,21.90
2022-10-02T13:30:18.025Z,22.00
2022-10-02T13:33:18.733Z,22.10
2022-10-02T13:36:18.832Z,22.20
2022-10-02T13:39:17.645Z,22.20
2022-10-02T13:45:20.297Z,22.40
2022-10-02T13:48:15.062Z,22.50
2022-10-02T13:51:10.594Z,22.50
2022-10-02T13:54:15.958Z,22.50
2022-10-02T13:57:11.431Z,22.50
2022-10-02T14:00:09.944Z,22.60
2022-10-02T14:05:57.078Z,22.80
2022-10-02T14:11:35.297Z,23.40
2022-10-02T14:14:35.652Z,25.10
2022-10-02T14:17:32.011Z,27.20
2022-10-02T14:20:35.660Z,28.60
2022-10-02T14:23:35.830Z,29.50
2022-10-02T14:26:35.365Z,29.90
2022-10-02T14:29:45.995Z,30.20
2022-10-02T14:33:01.740Z,29.90
2022-10-02T14:35:57.765Z,30.20
2022-10-02T14:39:00.297Z,29.00
2022-10-02T14:42:14.960Z,27.10
2022-10-02T14:45:36.000Z,25.80
2022-10-02T14:48:42.331Z,25.20
2022-10-02T14:52:02.477Z,24.80
2022-10-02T14:55:10.797Z,24.60
2022-10-02T14:58:29.170Z,24.30
2022-10-02T15:01:23.462Z,24.80
2022-10-02T15:07:09.270Z,27.50
2022-10-02T15:10:05.242Z,28.30
2022-10-02T15:13:03.602Z,28.50
2022-10-02T15:15:57.226Z,28.60
2022-10-02T15:21:32.619Z,28.50
2022-10-02T15:24:36.190Z,27.90
2022-10-02T15:27:28.742Z,27.60
2022-10-02T15:30:23.203Z,27.10
2022-10-02T15:33:20.354Z,26.70
2022-10-02T15:36:24.944Z,26.50
2022-10-02T15:39:43.023Z,26.40
2022-10-02T15:46:00.178Z,25.80
2022-10-02T15:49:06.118Z,25.50
2022-10-02T15:52:05.946Z,25.40
2022-10-02T15:55:00.778Z,25.30
2022-10-02T16:01:08.951Z,25.10
2022-10-02T16:06:53.241Z,24.40
2022-10-02T16:09:51.535Z,23.90
2022-10-02T16:15:42.222Z,23.40
2022-10-02T16:18:36.828Z,23.20
2022-10-02T16:22:00.959Z,23.00
2022-10-02T16:30:37.753Z,22.50
2022-10-02T16:33:32.096Z,22.40
2022-10-02T16:36:31.967Z,22.40
2022-10-02T16:39:36.815Z,22.30
2022-10-02T16:42:35.922Z,22.30
2022-10-02T16:45:57.071Z,22.20
2022-10-02T16:51:46.619Z,21.90
2022-10-02T16:54:45.111Z,21.80
2022-10-02T17:00:25.580Z,21.50
2022-10-02T17:03:23.733Z,21.40
2022-10-02T17:06:19.349Z,21.30
2022-10-02T17:09:14.513Z,21.10
2022-10-02T17:12:11.148Z,21.00
2022-10-02T17:17:49.647Z,20.80
2022-10-02T17:20:46.157Z,20.60
2022-10-02T17:26:23.725Z,20.40
2022-10-02T17:29:17.572Z,20.30
2022-10-02T17:32:11.115Z,20.30
2022-10-02T17:38:06.148Z,20.10
2022-10-02T17:43:44.561Z,19.80
2022-10-02T17:46:51.598Z,19.70
2022-10-02T17:50:00.001Z,19.50
2022-10-02T17:58:57.008Z,19.30
2022-10-02T18:01:53.185Z,19.30
2022-10-02T18:04:52.406Z,19.20
2022-10-02T18:07:50.181Z,19.10
2022-10-02T18:10:42.366Z,19.10
2022-10-02T18:13:44.978Z,18.90
2022-10-02T18:16:51.086Z,18.90
2022-10-02T18:19:52.633Z,18.80
2022-10-02T18:25:37.837Z,18.80
2022-10-02T18:31:54.208Z,18.60
2022-10-02T18:37:25.262Z,18.50
2022-10-02T18:40:24.021Z,18.40
2022-10-02T18:43:48.732Z,18.30
2022-10-02T18:46:47.383Z,18.20
2022-10-02T18:49:50.665Z,18.20
2022-10-02T18:52:49.656Z,18.20
2022-10-02T18:56:06.140Z,18.00
2022-10-02T19:01:52.892Z,18.00
2022-10-02T19:05:23.798Z,18.20
2022-10-02T19:08:23.894Z,18.20
2022-10-02T19:11:19.196Z,18.00
2022-10-02T19:14:16.899Z,17.90
2022-10-02T19:17:13.168Z,17.80
2022-10-02T19:20:09.721Z,17.70
2022-10-02T19:23:00.407Z,17.60
2022-10-02T19:25:53.786Z,17.60
2022-10-02T19:28:48.645Z,17.50
2022-10-02T19:31:42.981Z,17.30
2022-10-02T19:34:34.855Z,17.20
2022-10-02T19:40:19.308Z,17.20
2022-10-02T19:45:53.382Z,17.10
2022-10-02T19:48:44.985Z,17.10
2022-10-02T19:51:46.107Z,17.00
2022-10-02T19:54:40.936Z,17.00
2022-10-02T20:00:29.499Z,17.00
2022-10-02T20:03:22.626Z,17.10
2022-10-02T20:06:16.706Z,17.00
2022-10-02T20:09:22.906Z,17.00
2022-10-02T20:12:18.908Z,17.20
2022-10-02T20:15:14.340Z,17.00
2022-10-02T20:18:07.419Z,17.00
2022-10-02T20:21:04.569Z,16.90
2022-10-02T20:24:02.513Z,16.90
2022-10-02T20:26:56.830Z,16.80
2022-10-02T20:35:14.999Z,16.70
2022-10-02T20:40:47.579Z,16.60
2022-10-02T20:43:42.770Z,16.70
2022-10-02T20:47:21.132Z,16.50
2022-10-02T20:54:10.785Z,16.50
2022-10-02T20:57:33.717Z,16.50
2022-10-02T21:00:21.273Z,16.60
2022-10-02T21:13:43.705Z,16.50
2022-10-02T21:26:59.044Z,17.00
2022-10-02T21:30:06.890Z,16.80
2022-10-02T21:33:07.271Z,16.50
2022-10-02T21:45:39.009Z,16.30
2022-10-02T21:48:56.392Z,16.30
2022-10-02T21:55:27.363Z,16.50
2022-10-02T21:58:56.563Z,16.80
2022-10-02T22:02:28.675Z,17.00
2022-10-02T22:08:19.127Z,17.20
2022-10-02T22:14:04.195Z,16.90
2022-10-02T22:23:04.054Z,17.20
2022-10-02T22:26:04.006Z,17.10
2022-10-02T22:29:01.595Z,17.10
2022-10-02T22:35:13.283Z,16.90
2022-10-02T22:38:22.934Z,16.70
2022-10-02T22:41:21.716Z,16.60
2022-10-02T22:44:16.463Z,16.70
2022-10-02T22:47:22.650Z,16.60
2022-10-02T22:55:59.098Z,16.50
2022-10-02T22:59:01.102Z,16.50
2022-10-02T23:04:55.480Z,16.40
2022-10-02T23:07:54.046Z,16.30
2022-10-02T23:11:01.367Z,16.20
2022-10-02T23:13:56.809Z,16.10
2022-10-02T23:16:51.791Z,16.10
2022-10-02T23:20:04.031Z,16.10
2022-10-02T23:22:58.451Z,15.90
2022-10-02T23:25:52.761Z,15.80
2022-10-02T23:28:49.508Z,15.70
2022-10-02T23:31:45.455Z,15.70
2022-10-02T23:34:41.273Z,15.80
2022-10-02T23:37:38.734Z,15.70
2022-10-02T23:40:50.964Z,15.70
2022-10-02T23:43:47.131Z,15.70
2022-10-02T23:46:44.147Z,15.80
2022-10-02T23:49:39.168Z,15.90
2022-10-02T23:53:04.436Z,15.90
2022-10-02T23:56:07.317Z,15.80
2022-10-02T23:59:07.026Z,15.60
